Time;durP1;ratioP1;P1;durP2;ratioP2;P2;SDS_P1;SDS_P2;PMS_P1;PMS_P2;Temp;Humidity;BMP_temperature;BMP_pressure;BME280_temperature;BME280_humidity;BME280_pressure;Samples;Min_cycle;Max_cycle;Signal;HPM_P1;HPM_P2
2022/07/01 00:00:37;;;;;;;4.97;3.25;;;15.00;99.90;;;;;;5004278;28;20269;-62
2022/07/01 00:03:04;;;;;;;5.47;3.78;;;14.90;99.90;;;;;;5011050;28;20033;-64
2022/07/01 00:05:30;;;;;;;10.68;3.40;;;14.80;99.90;;;;;;5008765;28;20026;-64
2022/07/01 00:07:55;;;;;;;5.55;3.22;;;14.80;99.90;;;;;;5030420;28;20485;-63
2022/07/01 00:10:21;;;;;;;6.70;3.15;;;14.70;99.90;;;;;;5008296;28;20037;-64
2022/07/01 00:12:47;;;;;;;8.77;3.22;;;14.70;99.90;;;;;;5010503;28;20553;-63
2022/07/01 00:15:13;;;;;;;7.88;3.15;;;14.70;99.90;;;;;;5009907;28;20149;-65
2022/07/01 00:17:39;;;;;;;5.25;2.92;;;14.70;99.90;;;;;;5007474;28;20057;-62
2022/07/01 00:20:09;;;;;;;6.85;2.88;;;14.60;99.90;;;;;;5023166;28;20099;-62
2022/07/01 00:22:35;;;;;;;5.25;3.13;;;14.60;99.90;;;;;;5010688;28;20035;-64
2022/07/01 00:25:01;;;;;;;3.72;2.55;;;14.60;99.90;;;;;;5008328;28;20038;-63
2022/07/01 00:27:26;;;;;;;7.15;3.03;;;14.50;99.90;;;;;;5008880;28;20064;-64
2022/07/01 00:29:52;;;;;;;3.80;2.17;;;14.50;99.90;;;;;;5007865;28;20040;-63
2022/07/01 00:32:18;;;;;;;6.40;2.35;;;14.50;99.90;;;;;;5009539;28;20038;-64
2022/07/01 00:34:43;;;;;;;8.82;2.40;;;14.50;99.90;;;;;;5016023;28;20129;-63
2022/07/01 00:37:09;;;;;;;4.55;2.63;;;14.40;99.90;;;;;;5009191;28;20034;-63
2022/07/01 00:39:36;;;;;;;4.72;2.50;;;14.40;99.90;;;;;;5007385;28;20072;-64
2022/07/01 00:42:03;;;;;;;5.60;2.55;;;14.30;99.90;;;;;;5009300;28;20037;-63
2022/07/01 00:44:30;;;;;;;7.75;2.53;;;14.30;99.90;;;;;;5016402;28;20021;-64
2022/07/01 00:46:58;;;;;;;6.40;2.70;;;14.30;99.90;;;;;;5029794;28;20589;-62
2022/07/01 00:49:25;;;;;;;5.03;2.50;;;14.20;99.90;;;;;;5005759;28;20065;-63
2022/07/01 00:51:52;;;;;;;3.53;1.88;;;14.20;99.90;;;;;;5009481;28;20038;-63
2022/07/01 00:54:18;;;;;;;5.78;2.13;;;14.20;99.90;;;;;;5006712;28;20061;-64
2022/07/01 00:56:44;;;;;;;3.60;2.08;;;14.20;99.90;;;;;;5009373;28;20029;-63
2022/07/01 00:59:10;;;;;;;3.50;1.63;;;14.20;99.90;;;;;;5017152;28;20040;-62
2022/07/01 01:01:36;;;;;;;3.13;1.75;;;14.20;99.90;;;;;;5012745;28;20040;-63
2022/07/01 01:04:04;;;;;;;3.70;1.98;;;14.20;99.90;;;;;;5012533;28;20038;-63
2022/07/01 01:06:30;;;;;;;2.88;1.85;;;14.20;99.90;;;;;;5005573;28;20038;-63
2022/07/01 01:08:55;;;;;;;7.80;1.42;;;14.20;99.90;;;;;;5007989;28;20053;-63
2022/07/01 01:11:21;;;;;;;6.68;1.70;;;14.30;99.90;;;;;;5005187;28;20536;-63
2022/07/01 01:13:47;;;;;;;3.15;1.50;;;14.30;99.90;;;;;;5026045;28;20034;-62
2022/07/01 01:16:18;;;;;;;4.85;1.75;;;14.30;99.90;;;;;;5007161;28;20510;-62
2022/07/01 01:18:43;;;;;;;4.97;1.35;;;14.40;99.90;;;;;;5018323;28;20033;-62
2022/07/01 01:21:09;;;;;;;1.77;1.40;;;14.40;99.90;;;;;;5009161;28;20030;-62
2022/07/01 01:23:35;;;;;;;6.13;1.20;;;14.50;99.90;;;;;;5007381;28;20514;-62
2022/07/01 01:26:02;;;;;;;2.38;1.40;;;14.50;99.90;;;;;;5006611;28;20037;-62
2022/07/01 01:28:28;;;;;;;2.53;0.95;;;14.40;99.90;;;;;;5007575;28;20613;-62
2022/07/01 01:30:54;;;;;;;4.00;1.33;;;14.30;99.90;;;;;;5009898;28;20057;-63
2022/07/01 01:33:19;;;;;;;2.03;1.33;;;14.20;99.90;;;;;;5007188;28;20041;-63
2022/07/01 01:35:45;;;;;;;1.92;1.13;;;14.00;99.90;;;;;;5008180;28;20466;-62
2022/07/01 01:38:11;;;;;;;1.95;1.20;;;13.90;99.90;;;;;;5005748;28;20516;-62
2022/07/01 01:40:36;;;;;;;1.65;1.00;;;13.90;99.90;;;;;;5009263;28;20065;-62
2022/07/01 01:43:02;;;;;;;3.15;1.20;;;14.00;99.90;;;;;;5006873;28;20038;-62
2022/07/01 01:45:28;;;;;;;4.32;1.10;;;14.00;99.90;;;;;;5006264;28;20045;-62
2022/07/01 01:47:54;;;;;;;4.22;1.30;;;13.90;99.90;;;;;;5014026;28;20465;-63
2022/07/01 01:50:20;;;;;;;1.98;1.02;;;13.90;99.90;;;;;;5028208;28;20025;-63
2022/07/01 01:52:46;;;;;;;1.67;1.08;;;13.90;99.90;;;;;;5011402;28;20053;-62
2022/07/01 01:55:12;;;;;;;7.18;1.30;;;13.90;99.90;;;;;;5008328;28;20053;-62
2022/07/01 01:57:37;;;;;;;6.03;1.38;;;13.90;99.90;;;;;;5018343;28;20041;-63
2022/07/01 02:00:05;;;;;;;5.95;1.20;;;13.90;99.90;;;;;;5002732;28;20030;-62
2022/07/01 02:02:33;;;;;;;3.17;1.40;;;14.00;99.90;;;;;;5015238;28;20037;-63
2022/07/01 02:04:59;;;;;;;4.22;1.10;;;13.90;99.90;;;;;;5015357;28;20045;-62
2022/07/01 02:07:24;;;;;;;4.90;1.30;;;13.90;99.90;;;;;;5017007;28;20021;-64
2022/07/01 02:09:50;;;;;;;1.67;1.20;;;13.90;99.90;;;;;;5014905;28;20119;-63
2022/07/01 02:12:16;;;;;;;5.90;1.60;;;13.90;99.90;;;;;;5017427;28;20034;-63
2022/07/01 02:14:41;;;;;;;5.88;1.50;;;13.80;99.90;;;;;;5012175;28;20041;-63
2022/07/01 02:17:07;;;;;;;1.85;1.50;;;13.80;99.90;;;;;;5007176;28;20092;-63
2022/07/01 02:19:33;;;;;;;5.00;1.23;;;13.70;99.90;;;;;;5013066;28;20025;-63
2022/07/01 02:21:58;;;;;;;2.88;1.48;;;13.70;99.90;;;;;;5027677;28;20381;-64
2022/07/01 02:24:24;;;;;;;2.72;1.20;;;13.60;99.90;;;;;;5014841;28;20025;-64
2022/07/01 02:26:49;;;;;;;2.50;1.30;;;13.60;99.90;;;;;;5032152;28;20117;-64
2022/07/01 02:29:15;;;;;;;2.03;1.20;;;13.50;99.90;;;;;;5017239;28;20065;-64
2022/07/01 02:31:41;;;;;;;4.28;1.25;;;13.50;99.90;;;;;;5014800;28;20041;-63
2022/07/01 02:34:06;;;;;;;3.00;1.27;;;13.40;99.90;;;;;;5029958;28;20120;-64
2022/07/01 02:36:32;;;;;;;2.92;1.50;;;13.40;99.90;;;;;;5020488;28;20036;-63
2022/07/01 02:38:58;;;;;;;1.67;1.30;;;13.30;99.90;;;;;;5015887;28;20109;-63
2022/07/01 02:41:23;;;;;;;3.90;1.83;;;13.30;99.90;;;;;;5014522;28;20108;-63
2022/07/01 02:43:49;;;;;;;4.22;1.80;;;13.20;99.90;;;;;;5013687;28;20466;-64
2022/07/01 02:46:15;;;;;;;5.57;2.10;;;13.20;99.90;;;;;;5014403;28;20026;-64
2022/07/01 02:48:40;;;;;;;4.85;1.63;;;13.20;99.90;;;;;;5029207;28;20206;-64
2022/07/01 02:51:06;;;;;;;3.20;1.98;;;13.20;99.90;;;;;;5014020;28;20044;-63
2022/07/01 02:53:32;;;;;;;5.20;1.98;;;13.20;99.90;;;;;;5027508;28;20390;-64
2022/07/01 02:55:57;;;;;;;3.00;1.80;;;13.20;99.90;;;;;;5011310;28;20169;-63
2022/07/01 02:58:24;;;;;;;3.30;1.65;;;13.20;99.90;;;;;;5015827;28;20090;-64
2022/07/01 03:00:52;;;;;;;2.47;1.60;;;13.30;99.90;;;;;;5008724;28;20029;-63
2022/07/01 03:03:17;;;;;;;2.97;1.60;;;13.30;99.90;;;;;;5009004;28;20156;-63
2022/07/01 03:05:43;;;;;;;1.67;1.08;;;13.40;99.90;;;;;;5010084;28;20483;-63
2022/07/01 03:08:09;;;;;;;1.50;1.10;;;13.40;99.90;;;;;;5002374;28;20593;-63
2022/07/01 03:10:34;;;;;;;2.22;1.30;;;13.40;99.90;;;;;;5010781;28;20045;-63
2022/07/01 03:13:01;;;;;;;2.00;1.50;;;13.50;99.90;;;;;;5009368;28;20688;-64
2022/07/01 03:15:27;;;;;;;3.28;1.30;;;13.50;99.90;;;;;;5010078;28;20045;-64
2022/07/01 03:17:53;;;;;;;3.50;1.52;;;13.50;99.90;;;;;;5014874;28;20038;-63
2022/07/01 03:20:19;;;;;;;6.43;1.58;;;13.50;99.90;;;;;;5007938;28;20096;-65
2022/07/01 03:22:46;;;;;;;2.13;1.10;;;13.40;99.90;;;;;;5010215;28;20061;-63
2022/07/01 03:25:12;;;;;;;2.58;1.20;;;13.40;99.90;;;;;;5019624;28;20073;-63
2022/07/01 03:27:39;;;;;;;4.70;1.30;;;13.30;99.90;;;;;;5008327;28;20117;-64
2022/07/01 03:30:06;;;;;;;4.25;1.30;;;13.30;99.90;;;;;;5010294;28;20025;-63
2022/07/01 03:32:32;;;;;;;3.95;1.15;;;13.30;99.90;;;;;;5028617;28;20359;-63
2022/07/01 03:34:58;;;;;;;5.15;1.30;;;13.30;99.90;;;;;;5016300;28;20548;-63
2022/07/01 03:37:24;;;;;;;3.22;1.38;;;13.30;99.90;;;;;;5031053;28;20053;-64
2022/07/01 03:39:50;;;;;;;3.22;1.40;;;13.30;99.90;;;;;;5014180;28;20029;-64
2022/07/01 03:42:17;;;;;;;3.08;1.40;;;13.30;99.90;;;;;;5015822;28;20034;-64
2022/07/01 03:44:44;;;;;;;4.03;1.80;;;13.30;99.90;;;;;;5015738;28;20053;-63
2022/07/01 03:47:10;;;;;;;2.70;1.60;;;13.20;99.90;;;;;;5012559;28;20022;-64
2022/07/01 03:49:36;;;;;;;3.35;1.70;;;13.20;99.90;;;;;;5016406;28;20029;-63
2022/07/01 03:52:03;;;;;;;7.63;1.60;;;13.30;99.90;;;;;;5010362;28;20045;-63
2022/07/01 03:54:38;;;;;;;3.10;1.70;;;13.20;99.90;;;;;;5009348;28;20103;-64
2022/07/01 03:57:06;;;;;;;5.32;2.13;;;13.20;99.90;;;;;;5007095;28;20084;-64
2022/07/01 03:59:39;;;;;;;4.20;1.88;;;13.20;99.90;;;;;;4997256;28;20133;-65
2022/07/01 04:02:06;;;;;;;3.00;1.95;;;13.20;99.90;;;;;;5007717;28;20041;-66
2022/07/01 04:04:33;;;;;;;5.63;2.50;;;13.20;99.90;;;;;;5006665;28;20022;-65
2022/07/01 04:07:00;;;;;;;4.82;2.50;;;13.20;99.90;;;;;;5009406;28;20034;-66
2022/07/01 04:09:26;;;;;;;5.60;2.85;;;13.10;99.90;;;;;;5009583;28;20026;-65
2022/07/01 04:11:53;;;;;;;6.22;2.90;;;13.10;99.90;;;;;;5008553;28;20037;-67
2022/07/01 04:14:19;;;;;;;6.13;2.75;;;13.10;99.90;;;;;;5008006;28;20087;-64
2022/07/01 04:16:45;;;;;;;4.15;2.70;;;13.00;99.90;;;;;;5008428;28;20474;-66
2022/07/01 04:19:13;;;;;;;3.50;2.60;;;13.10;99.90;;;;;;5018215;28;20084;-66
2022/07/01 04:24:24;;;;;;;4.30;3.05;;;13.10;99.90;;;;;;5000389;28;20141;-64
2022/07/01 04:26:51;;;;;;;5.35;2.65;;;13.10;99.90;;;;;;5005328;28;20049;-66
2022/07/01 04:29:17;;;;;;;7.18;2.80;;;13.10;99.90;;;;;;5009934;28;20037;-66
2022/07/01 04:31:42;;;;;;;7.53;2.42;;;13.20;99.90;;;;;;5016187;28;20030;-66
2022/07/01 04:34:09;;;;;;;5.18;2.00;;;13.10;99.90;;;;;;5007898;28;20050;-66
2022/07/01 04:36:35;;;;;;;4.82;2.08;;;13.20;99.90;;;;;;5008280;28;20041;-66
2022/07/01 04:39:02;;;;;;;3.88;2.20;;;13.20;99.90;;;;;;5015054;28;20749;-65
2022/07/01 04:44:12;;;;;;;3.47;2.35;;;13.20;99.90;;;;;;5007767;28;20044;-64
2022/07/01 04:46:38;;;;;;;3.58;2.15;;;13.20;99.90;;;;;;5007293;28;20382;-65
2022/07/01 04:49:04;;;;;;;3.60;2.47;;;13.30;99.90;;;;;;5008955;28;20037;-66
2022/07/01 04:51:30;;;;;;;3.25;2.10;;;13.30;99.90;;;;;;5006146;28;20509;-65
2022/07/01 04:53:56;;;;;;;5.38;2.40;;;13.30;99.90;;;;;;5007038;28;20111;-67
2022/07/01 04:56:22;;;;;;;3.50;2.08;;;13.20;99.90;;;;;;5008935;28;20042;-66
2022/07/01 04:58:48;;;;;;;4.10;2.20;;;13.30;99.90;;;;;;5005661;28;20413;-68
2022/07/01 05:01:14;;;;;;;6.82;2.05;;;13.30;99.90;;;;;;5005360;28;20030;-66
2022/07/01 05:03:39;;;;;;;4.70;1.90;;;13.30;99.90;;;;;;5008221;28;20040;-67
2022/07/01 05:06:05;;;;;;;5.80;2.17;;;13.30;99.90;;;;;;5006832;28;20026;-64
2022/07/01 05:08:31;;;;;;;3.15;2.15;;;13.30;99.90;;;;;;5008516;28;20038;-65
2022/07/01 05:10:57;;;;;;;6.05;2.35;;;13.30;99.90;;;;;;5007285;28;20065;-66
2022/07/01 05:13:23;;;;;;;2.88;2.13;;;13.30;99.90;;;;;;5008075;28;20501;-65
2022/07/01 05:15:49;;;;;;;3.25;2.20;;;13.30;99.90;;;;;;5006535;28;20497;-65
2022/07/01 05:23:43;;;;;;;4.32;3.03;;;13.30;99.90;;;;;;5005847;28;20045;-66
2022/07/01 05:26:08;;;;;;;5.53;3.40;;;13.40;99.90;;;;;;5008226;28;20406;-65
2022/07/01 05:28:34;;;;;;;7.47;3.38;;;13.50;99.90;;;;;;5008017;28;20034;-66
2022/07/01 05:31:00;;;;;;;6.05;3.45;;;13.50;99.90;;;;;;5007803;28;20417;-66
2022/07/01 05:33:28;;;;;;;7.28;3.60;;;13.50;99.90;;;;;;5008141;28;20855;-65
2022/07/01 05:35:54;;;;;;;4.68;3.45;;;13.50;99.90;;;;;;5007356;28;20026;-67
2022/07/01 05:38:20;;;;;;;5.28;3.50;;;13.50;99.90;;;;;;5008372;28;20041;-65
2022/07/01 05:40:46;;;;;;;6.63;3.80;;;13.50;99.90;;;;;;5008135;28;20022;-66
2022/07/01 05:43:11;;;;;;;7.00;4.28;;;13.50;99.90;;;;;;5007435;28;20048;-66
2022/07/01 05:45:37;;;;;;;5.82;3.65;;;13.50;99.90;;;;;;5008400;28;20044;-66
2022/07/01 05:48:03;;;;;;;6.93;4.18;;;13.60;99.90;;;;;;5008040;28;20029;-65
2022/07/01 05:50:28;;;;;;;6.63;4.43;;;13.60;99.90;;;;;;5006643;28;20030;-64
2022/07/01 05:52:54;;;;;;;5.88;4.10;;;13.70;99.90;;;;;;5005210;28;20049;-65
2022/07/01 05:55:20;;;;;;;5.38;4.07;;;13.70;99.90;;;;;;5007481;28;20438;-67
2022/07/01 05:57:45;;;;;;;4.97;3.72;;;13.70;99.90;;;;;;5008092;28;20783;-64
2022/07/01 06:00:12;;;;;;;7.88;4.70;;;13.70;99.90;;;;;;5005935;28;20075;-65
2022/07/01 06:02:40;;;;;;;5.10;3.90;;;13.70;99.90;;;;;;5007865;28;20085;-67
2022/07/01 06:05:06;;;;;;;6.82;3.95;;;13.70;99.90;;;;;;5002393;28;20108;-67
2022/07/01 06:07:32;;;;;;;9.93;4.30;;;13.70;99.90;;;;;;5005740;28;20030;-65
2022/07/01 06:09:58;;;;;;;4.68;3.33;;;13.70;99.90;;;;;;5010770;28;20034;-65
2022/07/01 06:12:23;;;;;;;4.90;3.90;;;13.80;99.90;;;;;;5006949;28;20029;-66
2022/07/01 06:14:49;;;;;;;8.10;3.50;;;13.70;99.90;;;;;;5005583;28;20064;-66
2022/07/01 06:17:16;;;;;;;4.72;3.53;;;13.80;99.90;;;;;;5008796;28;20026;-65
2022/07/01 06:19:42;;;;;;;4.90;3.70;;;13.70;99.90;;;;;;5005801;28;20038;-64
2022/07/01 06:22:08;;;;;;;5.95;4.03;;;13.80;99.90;;;;;;5005667;28;20041;-61
2022/07/01 06:24:34;;;;;;;5.00;3.72;;;13.80;99.90;;;;;;5005666;28;20442;-61
2022/07/01 06:27:00;;;;;;;9.10;4.70;;;13.80;99.90;;;;;;5006347;28;20643;-60
2022/07/01 06:29:27;;;;;;;7.57;3.95;;;13.80;99.90;;;;;;5008106;28;20545;-61
2022/07/01 06:31:53;;;;;;;7.75;4.25;;;13.80;99.90;;;;;;5008960;28;20432;-61
2022/07/01 06:34:19;;;;;;;5.70;4.13;;;13.80;99.90;;;;;;5002160;28;20279;-62
2022/07/01 06:36:44;;;;;;;8.10;4.28;;;13.80;99.90;;;;;;5006110;28;20484;-61
2022/07/01 06:39:10;;;;;;;7.22;3.88;;;13.80;99.90;;;;;;5007424;28;20026;-61
2022/07/01 06:41:36;;;;;;;10.63;4.28;;;13.70;99.90;;;;;;5005958;28;20041;-63
2022/07/01 06:44:04;;;;;;;12.48;4.80;;;13.70;99.90;;;;;;5006427;28;20048;-62
2022/07/01 06:46:31;;;;;;;6.95;4.72;;;13.70;99.90;;;;;;5004225;28;20470;-62
2022/07/01 06:48:58;;;;;;;8.07;4.30;;;13.80;99.90;;;;;;5003014;28;20430;-61
2022/07/01 06:51:24;;;;;;;11.48;4.60;;;13.70;99.90;;;;;;5006971;28;20363;-62
2022/07/01 06:53:52;;;;;;;6.68;4.55;;;13.70;99.90;;;;;;5005881;28;20061;-61
2022/07/01 06:56:18;;;;;;;8.18;4.57;;;13.70;99.90;;;;;;5007099;28;20041;-61
2022/07/01 06:58:44;;;;;;;10.65;4.80;;;13.70;99.90;;;;;;5007073;28;20045;-60
2022/07/01 07:01:10;;;;;;;7.35;4.50;;;13.70;99.90;;;;;;5005005;28;20462;-61
2022/07/01 07:03:36;;;;;;;7.53;4.78;;;13.70;99.90;;;;;;5005340;28;20084;-61
2022/07/01 07:06:03;;;;;;;7.43;4.15;;;13.70;99.90;;;;;;5005603;28;20601;-61
2022/07/01 07:08:32;;;;;;;8.65;4.70;;;13.80;99.90;;;;;;5011986;28;20044;-61
2022/07/01 07:10:58;;;;;;;8.18;5.10;;;13.80;99.90;;;;;;5014203;28;20041;-61
2022/07/01 07:13:24;;;;;;;7.53;4.80;;;13.80;99.90;;;;;;5009171;28;20120;-61
2022/07/01 07:15:50;;;;;;;9.23;4.43;;;13.90;99.90;;;;;;5013979;28;20118;-61
2022/07/01 07:18:16;;;;;;;8.25;4.55;;;13.80;99.90;;;;;;5007295;28;20030;-61
2022/07/01 07:20:43;;;;;;;7.22;4.88;;;13.80;99.90;;;;;;5016464;28;20033;-61
2022/07/01 07:23:09;;;;;;;10.57;4.65;;;13.90;99.90;;;;;;5012680;28;20041;-61
2022/07/01 07:25:34;;;;;;;8.57;5.07;;;13.90;99.90;;;;;;5007202;28;20037;-62
2022/07/01 07:28:00;;;;;;;6.65;4.45;;;13.80;99.90;;;;;;5007458;28;20647;-62
2022/07/01 07:30:26;;;;;;;6.82;4.32;;;13.70;99.90;;;;;;5010446;28;20033;-61
2022/07/01 07:32:51;;;;;;;8.13;5.63;;;13.60;99.90;;;;;;5008146;28;20041;-61
2022/07/01 07:35:17;;;;;;;8.68;5.03;;;13.60;99.90;;;;;;5011010;28;20033;-61
2022/07/01 07:37:43;;;;;;;9.95;5.47;;;13.70;99.90;;;;;;5010221;28;20057;-60
2022/07/01 07:40:12;;;;;;;9.07;5.55;;;13.70;99.90;;;;;;5009173;28;20033;-61
2022/07/01 07:42:41;;;;;;;8.85;5.50;;;13.70;99.90;;;;;;5007402;28;20168;-61
2022/07/01 07:45:08;;;;;;;9.05;5.63;;;13.70;99.90;;;;;;5004287;28;20041;-61
2022/07/01 07:47:34;;;;;;;8.70;5.68;;;13.70;99.90;;;;;;5011021;28;20030;-62
2022/07/01 07:50:01;;;;;;;9.18;5.18;;;13.80;99.90;;;;;;5008035;28;20030;-60
2022/07/01 07:52:26;;;;;;;9.60;5.20;;;13.80;99.90;;;;;;5013735;28;20030;-61
2022/07/01 07:54:52;;;;;;;9.85;5.25;;;13.70;99.90;;;;;;5005958;28;20058;-60
2022/07/01 07:57:19;;;;;;;8.73;5.13;;;13.80;99.90;;;;;;5014780;28;20038;-62
2022/07/01 07:59:44;;;;;;;9.38;5.15;;;13.90;99.90;;;;;;5009155;28;20036;-60
2022/07/01 08:02:10;;;;;;;8.85;5.07;;;13.90;99.90;;;;;;5008815;28;20034;-61
2022/07/01 08:04:36;;;;;;;9.68;4.88;;;14.00;99.90;;;;;;5007862;28;20548;-60
2022/07/01 08:07:01;;;;;;;7.63;4.57;;;14.00;99.90;;;;;;5007764;28;20766;-61
2022/07/01 08:09:27;;;;;;;6.90;3.83;;;14.00;99.90;;;;;;5010559;28;20051;-61
2022/07/01 08:11:53;;;;;;;6.30;3.75;;;13.90;99.90;;;;;;5007049;28;20110;-61
2022/07/01 08:14:19;;;;;;;5.55;3.58;;;14.00;99.90;;;;;;5009109;28;20121;-61
2022/07/01 08:16:44;;;;;;;6.75;3.90;;;13.90;99.90;;;;;;5008878;28;20076;-61
2022/07/01 08:19:10;;;;;;;7.32;3.97;;;13.90;99.90;;;;;;5009973;28;20054;-62
2022/07/01 08:21:36;;;;;;;5.65;3.60;;;13.90;99.90;;;;;;4997635;28;20076;-62
2022/07/01 08:24:02;;;;;;;5.40;3.60;;;13.90;99.90;;;;;;5006210;28;20034;-61
2022/07/01 08:26:30;;;;;;;6.10;3.95;;;13.90;99.90;;;;;;5010400;28;20044;-62
2022/07/01 08:28:56;;;;;;;5.18;3.47;;;14.00;99.90;;;;;;5007309;28;20930;-61
2022/07/01 08:31:21;;;;;;;5.97;3.67;;;14.00;99.90;;;;;;5008671;28;20109;-61
2022/07/01 08:33:47;;;;;;;7.93;3.90;;;14.00;99.90;;;;;;5007662;28;20038;-61
2022/07/01 08:36:13;;;;;;;6.80;3.67;;;14.00;99.90;;;;;;5009561;28;20449;-61
2022/07/01 08:38:39;;;;;;;4.50;3.03;;;14.00;99.90;;;;;;5007242;28;20474;-61
2022/07/01 08:41:05;;;;;;;5.55;3.35;;;14.00;99.90;;;;;;5009183;28;20030;-61
2022/07/01 08:43:31;;;;;;;5.82;3.42;;;14.00;99.90;;;;;;5009608;28;20762;-61
2022/07/01 08:46:01;;;;;;;7.90;3.20;;;14.10;99.90;;;;;;5007888;28;20037;-61
2022/07/01 08:48:30;;;;;;;5.95;3.58;;;14.10;99.90;;;;;;5009162;28;20069;-61
2022/07/01 08:50:56;;;;;;;4.07;2.97;;;14.00;99.90;;;;;;5006632;28;20678;-61
2022/07/01 08:53:21;;;;;;;5.88;3.55;;;13.90;99.90;;;;;;5009058;28;20058;-61
2022/07/01 08:58:32;;;;;;;7.57;3.38;;;14.00;99.90;;;;;;5008318;28;20604;-61
2022/07/01 09:01:21;;;;;;;5.30;3.45;;;14.00;99.90;;;;;;5006683;28;20125;-60
2022/07/01 09:03:54;;;;;;;6.18;3.95;;;14.10;99.90;;;;;;5005881;28;20045;-60
2022/07/01 09:06:23;;;;;;;6.25;3.88;;;14.10;99.90;;;;;;5009394;28;20471;-61
2022/07/01 09:08:49;;;;;;;7.72;4.00;;;14.20;99.90;;;;;;5006752;28;20029;-60
2022/07/01 09:11:17;;;;;;;8.07;4.00;;;14.00;99.90;;;;;;5009392;28;20088;-61
2022/07/01 09:13:44;;;;;;;6.10;3.55;;;14.00;99.90;;;;;;5007861;28;20095;-61
2022/07/01 09:16:16;;;;;;;8.38;3.53;;;14.00;99.90;;;;;;5007206;28;20116;-61
2022/07/01 09:19:03;;;;;;;4.90;3.45;;;14.10;99.90;;;;;;5008022;28;20041;-61
2022/07/01 09:21:30;;;;;;;7.10;3.63;;;14.10;99.90;;;;;;5009354;28;20026;-61
2022/07/01 09:23:58;;;;;;;7.45;3.83;;;14.10;99.90;;;;;;5007102;28;20144;-61
2022/07/01 09:26:23;;;;;;;8.55;4.30;;;14.10;99.90;;;;;;5009312;28;20458;-61
2022/07/01 09:28:56;;;;;;;6.25;3.83;;;14.10;99.90;;;;;;5005463;28;20041;-61
2022/07/01 09:31:34;;;;;;;7.70;3.72;;;14.10;99.90;;;;;;5005780;28;20034;-61
2022/07/01 09:34:10;;;;;;;9.68;4.28;;;14.20;99.90;;;;;;5007831;28;20095;-61
2022/07/01 09:36:41;;;;;;;8.05;5.18;;;14.10;99.90;;;;;;5007820;28;20033;-61
2022/07/01 09:39:07;;;;;;;10.13;5.18;;;14.10;99.90;;;;;;5008431;28;20083;-61
2022/07/01 09:41:37;;;;;;;8.35;5.35;;;14.10;99.90;;;;;;5007044;28;20100;-61
2022/07/01 09:44:09;;;;;;;8.68;5.22;;;14.10;99.90;;;;;;5005813;28;20038;-60
2022/07/01 09:46:36;;;;;;;8.15;5.10;;;14.10;99.90;;;;;;5007570;28;20064;-60
2022/07/01 09:49:02;;;;;;;8.55;5.00;;;14.10;99.90;;;;;;5007944;28;20576;-60
2022/07/01 09:51:28;;;;;;;8.38;5.28;;;14.00;99.90;;;;;;5006056;28;20029;-60
2022/07/01 09:53:56;;;;;;;9.00;5.38;;;13.90;99.90;;;;;;5006643;28;20099;-60
2022/07/01 09:56:25;;;;;;;9.35;5.30;;;13.90;99.90;;;;;;5013385;28;20033;-60
2022/07/01 09:58:51;;;;;;;9.35;5.25;;;13.90;99.90;;;;;;5020822;28;20026;-60
2022/07/01 10:01:17;;;;;;;8.25;5.60;;;13.80;99.90;;;;;;5004489;28;20026;-61
2022/07/01 10:03:43;;;;;;;9.00;5.05;;;13.80;99.90;;;;;;5008386;28;20030;-61
2022/07/01 10:06:27;;;;;;;11.50;5.35;;;13.90;99.90;;;;;;5006110;28;20399;-60
2022/07/01 10:09:30;;;;;;;9.32;5.10;;;13.90;99.90;;;;;;5007286;28;20030;-60
2022/07/01 10:12:24;;;;;;;10.52;5.32;;;13.90;99.90;;;;;;4997525;28;20109;-60
2022/07/01 10:14:51;;;;;;;9.13;5.47;;;13.90;99.90;;;;;;5006383;28;20173;-60
2022/07/01 10:17:31;;;;;;;12.50;5.47;;;14.00;99.90;;;;;;5005805;28;20062;-60
2022/07/01 10:20:07;;;;;;;8.33;5.07;;;14.10;99.90;;;;;;4989563;28;20124;-60
2022/07/01 10:22:36;;;;;;;7.88;4.45;;;14.10;99.90;;;;;;5005499;28;20038;-61
2022/07/01 10:25:31;;;;;;;7.90;4.57;;;14.00;99.90;;;;;;5008395;28;20038;-59
2022/07/01 10:28:16;;;;;;;9.18;4.72;;;14.00;99.90;;;;;;5003642;28;20034;-60
2022/07/01 10:31:15;;;;;;;8.45;4.70;;;13.90;99.90;;;;;;5022357;28;20041;-61
2022/07/01 10:33:45;;;;;;;11.38;4.90;;;13.90;99.90;;;;;;5020802;28;20049;-60
2022/07/01 10:36:25;;;;;;;6.63;4.47;;;14.00;99.90;;;;;;5005803;28;20795;-60
2022/07/01 10:41:56;;;;;;;7.72;3.85;;;14.20;99.90;;;;;;5005715;28;20393;-60
2022/07/01 10:44:23;;;;;;;5.93;3.80;;;14.20;99.90;;;;;;5006203;28;20046;-60
2022/07/01 10:47:01;;;;;;;6.57;4.03;;;14.20;99.90;;;;;;5008978;28;20034;-61
2022/07/01 10:49:36;;;;;;;6.85;4.50;;;14.10;99.90;;;;;;5001284;28;20391;-60
2022/07/01 10:52:07;;;;;;;7.50;4.18;;;14.10;99.90;;;;;;5015091;28;20045;-60
2022/07/01 10:54:36;;;;;;;9.38;4.35;;;14.00;99.90;;;;;;5025190;28;20075;-61
2022/07/01 10:57:20;;;;;;;8.00;3.92;;;13.90;99.90;;;;;;5021079;28;20486;-60
2022/07/01 10:59:50;;;;;;;7.22;3.67;;;13.90;99.90;;;;;;5007389;28;20034;-61
2022/07/01 11:02:25;;;;;;;7.28;4.18;;;13.80;99.90;;;;;;5018256;28;20036;-61
2022/07/01 11:04:53;;;;;;;10.27;4.03;;;13.80;99.90;;;;;;5006272;28;20034;-60
2022/07/01 11:07:20;;;;;;;7.78;4.43;;;13.70;99.90;;;;;;5005850;28;20026;-60
2022/07/01 11:09:46;;;;;;;7.85;3.55;;;13.80;99.90;;;;;;5010435;28;20053;-61
2022/07/01 11:12:16;;;;;;;6.07;3.70;;;13.90;99.90;;;;;;5010709;28;20088;-60
2022/07/01 11:14:42;;;;;;;5.20;3.33;;;13.90;99.90;;;;;;5007398;28;20042;-60
2022/07/01 11:17:09;;;;;;;5.95;3.28;;;13.80;99.90;;;;;;5008091;28;20042;-60
2022/07/01 11:19:35;;;;;;;9.27;3.42;;;13.90;99.90;;;;;;5010867;28;20378;-60
2022/07/01 11:22:02;;;;;;;7.45;3.75;;;13.90;99.90;;;;;;5027894;28;20494;-60
2022/07/01 11:24:28;;;;;;;4.97;3.20;;;13.90;99.90;;;;;;5018838;28;20088;-60
2022/07/01 11:27:07;;;;;;;5.80;3.58;;;14.00;99.90;;;;;;5020119;28;20034;-60
2022/07/01 11:29:33;;;;;;;7.38;3.40;;;14.00;99.90;;;;;;5015423;28;20081;-60
2022/07/01 11:31:59;;;;;;;5.82;3.28;;;13.90;99.90;;;;;;5016688;28;20034;-60
2022/07/01 11:34:28;;;;;;;5.40;3.38;;;13.90;99.90;;;;;;5011447;28;20073;-60
2022/07/01 11:39:41;;;;;;;5.70;3.22;;;13.90;99.90;;;;;;5025887;28;20445;-60
2022/07/01 11:42:08;;;;;;;4.40;2.92;;;13.90;99.90;;;;;;5017900;28;20030;-60
2022/07/01 11:44:44;;;;;;;7.38;3.40;;;13.90;99.90;;;;;;5012091;28;20550;-60
2022/07/01 11:47:11;;;;;;;8.82;3.10;;;14.00;99.90;;;;;;5012982;28;20485;-60
2022/07/01 11:49:47;;;;;;;6.88;4.10;;;13.90;99.90;;;;;;5021917;28;20041;-60
2022/07/01 11:52:14;;;;;;;6.07;3.70;;;13.90;99.90;;;;;;5011413;28;20036;-60
2022/07/01 11:54:43;;;;;;;6.25;4.07;;;14.00;99.90;;;;;;5023210;28;20057;-60
2022/07/01 11:57:15;;;;;;;7.30;3.80;;;14.10;99.90;;;;;;5010646;28;20543;-60
2022/07/01 11:59:42;;;;;;;6.47;3.78;;;14.20;99.90;;;;;;5009615;28;20069;-60
2022/07/01 12:02:11;;;;;;;6.88;4.10;;;14.10;99.90;;;;;;5021818;28;20087;-60
2022/07/01 12:04:37;;;;;;;6.28;4.30;;;14.20;99.90;;;;;;5011498;28;20041;-60
2022/07/01 12:07:04;;;;;;;5.13;3.45;;;14.20;99.90;;;;;;5015022;28;20102;-60
2022/07/01 12:09:30;;;;;;;7.68;3.28;;;14.20;99.90;;;;;;5022623;28;20022;-60
2022/07/01 12:11:56;;;;;;;5.68;3.17;;;14.20;99.90;;;;;;5010406;28;20113;-60
2022/07/01 12:14:24;;;;;;;4.30;2.88;;;14.20;99.90;;;;;;5022974;28;20033;-60
2022/07/01 12:16:54;;;;;;;4.10;2.70;;;14.30;99.90;;;;;;5010160;28;20386;-60
2022/07/01 12:19:26;;;;;;;9.00;3.30;;;14.30;99.90;;;;;;5008180;28;20021;-60
2022/07/01 12:21:54;;;;;;;5.18;3.42;;;14.30;99.90;;;;;;5022078;28;20128;-60
2022/07/01 12:24:22;;;;;;;4.82;3.35;;;14.30;99.90;;;;;;5009122;28;20037;-60
2022/07/01 12:26:59;;;;;;;4.95;3.15;;;14.30;99.90;;;;;;5009009;28;20048;-60
2022/07/01 12:29:30;;;;;;;5.80;3.75;;;14.40;99.90;;;;;;5014884;28;20041;-60
2022/07/01 12:32:06;;;;;;;5.78;3.45;;;14.50;99.90;;;;;;5011711;28;20092;-60
2022/07/01 12:34:42;;;;;;;5.03;3.33;;;14.60;99.90;;;;;;5014400;28;20065;-60
2022/07/01 12:37:10;;;;;;;4.55;2.90;;;14.70;99.90;;;;;;5007723;28;20065;-60
2022/07/01 12:39:43;;;;;;;5.00;2.90;;;14.80;99.90;;;;;;5009441;28;20659;-61
2022/07/01 12:42:38;;;;;;;4.78;3.13;;;15.00;99.90;;;;;;5009113;28;20036;-61
2022/07/01 12:45:06;;;;;;;6.20;2.80;;;15.00;99.90;;;;;;5016466;28;20105;-61
2022/07/01 12:47:37;;;;;;;4.65;3.05;;;15.20;99.90;;;;;;5017327;28;20488;-61
2022/07/01 12:50:14;;;;;;;4.60;2.95;;;15.10;99.90;;;;;;5008477;28;20041;-60
2022/07/01 12:52:42;;;;;;;4.25;3.17;;;14.90;99.90;;;;;;5005747;28;20026;-61
2022/07/01 12:55:22;;;;;;;4.57;3.10;;;15.00;99.90;;;;;;5006897;28;20126;-60
2022/07/01 12:57:50;;;;;;;5.53;3.67;;;14.90;99.90;;;;;;5007800;28;20030;-61
2022/07/01 13:00:20;;;;;;;7.63;4.15;;;14.80;99.90;;;;;;5008906;28;20022;-60
2022/07/01 13:02:47;;;;;;;6.72;3.90;;;14.80;99.90;;;;;;5008009;28;20040;-60
2022/07/01 13:05:13;;;;;;;8.40;4.32;;;14.90;99.90;;;;;;5006090;28;20037;-61
2022/07/01 13:07:39;;;;;;;6.97;3.75;;;15.10;99.90;;;;;;5006499;28;20029;-61